sensor_id;sensor_type;location;lat;lon;timestamp;temperature;humidity
2447;DHT22;26430;48.818;9.244;2022-09-01T00:02:23;16.60;99.90
2447;DHT22;26430;48.818;9.244;2022-09-01T00:04:52;16.70;99.90
2447;DHT22;26430;48.818;9.244;2022-09-01T00:07:23;16.80;99.90
2447;DHT22;26430;48.818;9.244;2022-09-01T00:09:49;17.00;99.90
2447;DHT22;26430;48.818;9.244;2022-09-01T00:12:16;17.10;99.90
2447;DHT22;26430;48.818;9.244;2022-09-01T00:14:42;16.90;99.90
2447;DHT22;26430;48.818;9.244;2022-09-01T00:17:10;16.80;99.90
2447;DHT22;26430;48.818;9.244;2022-09-01T00:19:37;16.70;99.90
2447;DHT22;26430;48.818;9.244;2022-09-01T00:22:04;16.70;99.90
2447;DHT22;26430;48.818;9.244;2022-09-01T00:24:30;16.60;99.90
2447;DHT22;26430;48.818;9.244;2022-09-01T00:26:56;16.70;99.90
2447;DHT22;26430;48.818;9.244;2022-09-01T00:29:22;16.60;99.90
2447;DHT22;26430;48.818;9.244;2022-09-01T00:31:49;16.60;99.90
2447;DHT22;26430;48.818;9.244;2022-09-01T00:34:15;16.60;99.90
2447;DHT22;26430;48.818;9.244;2022-09-01T00:36:41;16.60;99.90
2447;DHT22;26430;48.818;9.244;2022-09-01T00:39:07;16.50;99.90
2447;DHT22;26430;48.818;9.244;2022-09-01T00:41:35;16.50;99.90
2447;DHT22;26430;48.818;9.244;2022-09-01T00:44:05;16.60;99.90
2447;DHT22;26430;48.818;9.244;2022-09-01T00:46:42;16.40;99.90
2447;DHT22;26430;48.818;9.244;2022-09-01T00:49:12;16.40;99.90
2447;DHT22;26430;48.818;9.244;2022-09-01T00:51:41;16.30;99.90
2447;DHT22;26430;48.818;9.244;2022-09-01T00:54:13;16.20;99.90
2447;DHT22;26430;48.818;9.244;2022-09-01T00:56:40;16.20;99.90
2447;DHT22;26430;48.818;9.244;2022-09-01T00:59:07;16.20;99.90
2447;DHT22;26430;48.818;9.244;2022-09-01T01:01:34;16.20;99.90
2447;DHT22;26430;48.818;9.244;2022-09-01T01:04:05;16.10;99.90
2447;DHT22;26430;48.818;9.244;2022-09-01T01:06:31;16.10;99.90
2447;DHT22;26430;48.818;9.244;2022-09-01T01:08:58;16.10;99.90
2447;DHT22;26430;48.818;9.244;2022-09-01T01:11:28;16.20;99.90
2447;DHT22;26430;48.818;9.244;2022-09-01T01:14:01;16.30;99.90
2447;DHT22;26430;48.818;9.244;2022-09-01T01:16:38;16.30;99.90
2447;DHT22;26430;48.818;9.244;2022-09-01T01:23:04;16.30;99.90
2447;DHT22;26430;48.818;9.244;2022-09-01T01:25:39;16.20;99.90
2447;DHT22;26430;48.818;9.244;2022-09-01T01:28:21;16.20;99.90
2447;DHT22;26430;48.818;9.244;2022-09-01T01:30:50;16.20;99.90
2447;DHT22;26430;48.818;9.244;2022-09-01T01:33:23;16.20;99.90
2447;DHT22;26430;48.818;9.244;2022-09-01T01:35:50;16.20;99.90
2447;DHT22;26430;48.818;9.244;2022-09-01T01:38:17;16.20;99.90
2447;DHT22;26430;48.818;9.244;2022-09-01T01:40:45;16.10;99.90
2447;DHT22;26430;48.818;9.244;2022-09-01T01:43:13;16.10;99.90
2447;DHT22;26430;48.818;9.244;2022-09-01T01:45:52;16.00;99.90
2447;DHT22;26430;48.818;9.244;2022-09-01T01:48:20;16.10;99.90
2447;DHT22;26430;48.818;9.244;2022-09-01T01:50:51;16.10;99.90
2447;DHT22;26430;48.818;9.244;2022-09-01T01:53:17;16.00;99.90
2447;DHT22;26430;48.818;9.244;2022-09-01T01:55:46;16.00;99.90
2447;DHT22;26430;48.818;9.244;2022-09-01T01:58:16;16.10;99.90
2447;DHT22;26430;48.818;9.244;2022-09-01T02:00:44;16.00;99.90
2447;DHT22;26430;48.818;9.244;2022-09-01T02:03:26;16.00;99.90
2447;DHT22;26430;48.818;9.244;2022-09-01T02:05:54;15.90;99.90
2447;DHT22;26430;48.818;9.244;2022-09-01T02:08:21;15.90;99.90
2447;DHT22;26430;48.818;9.244;2022-09-01T02:10:52;15.90;99.90
2447;DHT22;26430;48.818;9.244;2022-09-01T02:13:21;15.90;99.90
2447;DHT22;26430;48.818;9.244;2022-09-01T02:15:57;15.80;99.90
2447;DHT22;26430;48.818;9.244;2022-09-01T02:18:26;15.70;99.90
2447;DHT22;26430;48.818;9.244;2022-09-01T02:20:53;15.90;99.90
2447;DHT22;26430;48.818;9.244;2022-09-01T02:23:21;15.90;99.90
2447;DHT22;26430;48.818;9.244;2022-09-01T02:25:52;15.90;99.90
2447;DHT22;26430;48.818;9.244;2022-09-01T02:28:20;15.90;99.90
2447;DHT22;26430;48.818;9.244;2022-09-01T02:30:49;15.90;99.90
2447;DHT22;26430;48.818;9.244;2022-09-01T02:33:25;15.80;99.90
2447;DHT22;26430;48.818;9.244;2022-09-01T02:35:55;15.80;99.90
2447;DHT22;26430;48.818;9.244;2022-09-01T02:38:22;15.80;99.90
2447;DHT22;26430;48.818;9.244;2022-09-01T02:40:51;15.80;99.90
2447;DHT22;26430;48.818;9.244;2022-09-01T02:43:18;15.80;99.90
2447;DHT22;26430;48.818;9.244;2022-09-01T02:45:48;15.80;99.90
2447;DHT22;26430;48.818;9.244;2022-09-01T02:48:19;15.90;99.90
2447;DHT22;26430;48.818;9.244;2022-09-01T02:50:48;15.90;99.90
2447;DHT22;26430;48.818;9.244;2022-09-01T02:53:13;15.80;99.90
2447;DHT22;26430;48.818;9.244;2022-09-01T02:55:40;15.90;99.90
2447;DHT22;26430;48.818;9.244;2022-09-01T02:58:06;16.00;99.90
2447;DHT22;26430;48.818;9.244;2022-09-01T03:00:43;15.80;99.90
2447;DHT22;26430;48.818;9.244;2022-09-01T03:03:09;15.70;99.90
2447;DHT22;26430;48.818;9.244;2022-09-01T03:05:38;15.60;99.90
2447;DHT22;26430;48.818;9.244;2022-09-01T03:08:10;15.60;99.90
2447;DHT22;26430;48.818;9.244;2022-09-01T03:10:38;15.60;99.90
2447;DHT22;26430;48.818;9.244;2022-09-01T03:13:19;15.50;99.90
2447;DHT22;26430;48.818;9.244;2022-09-01T03:15:45;15.50;99.90
2447;DHT22;26430;48.818;9.244;2022-09-01T03:18:13;15.40;99.90
2447;DHT22;26430;48.818;9.244;2022-09-01T03:20:41;15.50;99.90
2447;DHT22;26430;48.818;9.244;2022-09-01T03:23:11;15.50;99.90
2447;DHT22;26430;48.818;9.244;2022-09-01T03:25:43;15.40;99.90
2447;DHT22;26430;48.818;9.244;2022-09-01T03:28:10;15.40;99.90
2447;DHT22;26430;48.818;9.244;2022-09-01T03:30:38;15.40;99.90
2447;DHT22;26430;48.818;9.244;2022-09-01T03:33:06;15.40;99.90
2447;DHT22;26430;48.818;9.244;2022-09-01T03:35:32;15.40;99.90
2447;DHT22;26430;48.818;9.244;2022-09-01T03:37:59;15.40;99.90
2447;DHT22;26430;48.818;9.244;2022-09-01T03:40:32;15.40;99.90
2447;DHT22;26430;48.818;9.244;2022-09-01T03:43:00;15.40;99.90
2447;DHT22;26430;48.818;9.244;2022-09-01T03:45:26;15.50;99.90
2447;DHT22;26430;48.818;9.244;2022-09-01T03:47:52;15.60;99.90
2447;DHT22;26430;48.818;9.244;2022-09-01T03:50:22;15.60;99.90
2447;DHT22;26430;48.818;9.244;2022-09-01T03:52:51;15.60;99.90
2447;DHT22;26430;48.818;9.244;2022-09-01T03:55:19;15.70;99.90
2447;DHT22;26430;48.818;9.244;2022-09-01T03:57:51;15.70;99.90
2447;DHT22;26430;48.818;9.244;2022-09-01T04:00:20;15.70;99.90
2447;DHT22;26430;48.818;9.244;2022-09-01T04:02:49;15.60;99.90
2447;DHT22;26430;48.818;9.244;2022-09-01T04:05:17;15.60;99.90
2447;DHT22;26430;48.818;9.244;2022-09-01T04:07:46;15.60;99.90
2447;DHT22;26430;48.818;9.244;2022-09-01T04:10:12;15.50;99.90
2447;DHT22;26430;48.818;9.244;2022-09-01T04:12:38;15.50;99.90
2447;DHT22;26430;48.818;9.244;2022-09-01T04:15:04;15.40;99.90
2447;DHT22;26430;48.818;9.244;2022-09-01T04:17:32;15.40;99.90
2447;DHT22;26430;48.818;9.244;2022-09-01T04:20:17;15.40;99.90
2447;DHT22;26430;48.818;9.244;2022-09-01T04:22:45;15.30;99.90
2447;DHT22;26430;48.818;9.244;2022-09-01T04:25:12;15.30;99.90
2447;DHT22;26430;48.818;9.244;2022-09-01T04:27:39;15.30;99.90
2447;DHT22;26430;48.818;9.244;2022-09-01T04:30:08;15.30;99.90
2447;DHT22;26430;48.818;9.244;2022-09-01T04:32:38;15.30;99.90
2447;DHT22;26430;48.818;9.244;2022-09-01T04:35:06;15.30;99.90
2447;DHT22;26430;48.818;9.244;2022-09-01T04:37:32;15.30;99.90
2447;DHT22;26430;48.818;9.244;2022-09-01T04:40:01;15.40;99.90
2447;DHT22;26430;48.818;9.244;2022-09-01T04:42:28;15.40;99.90
2447;DHT22;26430;48.818;9.244;2022-09-01T04:44:58;15.30;99.90
2447;DHT22;26430;48.818;9.244;2022-09-01T04:47:26;15.40;99.90
2447;DHT22;26430;48.818;9.244;2022-09-01T04:49:58;15.40;99.90
2447;DHT22;26430;48.818;9.244;2022-09-01T04:52:27;15.30;99.90
2447;DHT22;26430;48.818;9.244;2022-09-01T04:54:53;15.30;99.90
2447;DHT22;26430;48.818;9.244;2022-09-01T04:57:20;15.30;99.90
2447;DHT22;26430;48.818;9.244;2022-09-01T04:59:46;15.40;99.90
2447;DHT22;26430;48.818;9.244;2022-09-01T05:02:12;15.70;99.90
2447;DHT22;26430;48.818;9.244;2022-09-01T05:04:37;15.90;99.90
2447;DHT22;26430;48.818;9.244;2022-09-01T05:07:06;15.60;99.90
2447;DHT22;26430;48.818;9.244;2022-09-01T05:09:34;15.60;99.90
2447;DHT22;26430;48.818;9.244;2022-09-01T05:12:00;15.40;99.90
2447;DHT22;26430;48.818;9.244;2022-09-01T05:14:40;15.40;99.90
2447;DHT22;26430;48.818;9.244;2022-09-01T05:17:08;15.40;99.90
2447;DHT22;26430;48.818;9.244;2022-09-01T05:19:40;15.50;99.90
2447;DHT22;26430;48.818;9.244;2022-09-01T05:22:06;15.70;99.90
2447;DHT22;26430;48.818;9.244;2022-09-01T05:24:33;15.70;99.90
2447;DHT22;26430;48.818;9.244;2022-09-01T05:27:00;15.60;99.90
2447;DHT22;26430;48.818;9.244;2022-09-01T05:29:26;15.50;99.90
2447;DHT22;26430;48.818;9.244;2022-09-01T05:31:52;15.50;99.90
2447;DHT22;26430;48.818;9.244;2022-09-01T05:34:20;15.60;99.90
2447;DHT22;26430;48.818;9.244;2022-09-01T05:36:55;15.50;99.90
2447;DHT22;26430;48.818;9.244;2022-09-01T05:39:23;15.50;99.90
2447;DHT22;26430;48.818;9.244;2022-09-01T05:41:49;15.60;99.90
2447;DHT22;26430;48.818;9.244;2022-09-01T05:44:16;15.70;99.90
2447;DHT22;26430;48.818;9.244;2022-09-01T05:46:43;15.80;99.90
2447;DHT22;26430;48.818;9.244;2022-09-01T05:49:12;15.90;99.90
2447;DHT22;26430;48.818;9.244;2022-09-01T05:51:46;16.00;99.90
2447;DHT22;26430;48.818;9.244;2022-09-01T05:54:15;16.00;99.90
2447;DHT22;26430;48.818;9.244;2022-09-01T05:56:42;16.00;99.90
2447;DHT22;26430;48.818;9.244;2022-09-01T05:59:08;16.00;99.90
2447;DHT22;26430;48.818;9.244;2022-09-01T06:01:36;16.10;99.90
2447;DHT22;26430;48.818;9.244;2022-09-01T06:04:06;16.10;99.90
2447;DHT22;26430;48.818;9.244;2022-09-01T06:06:39;16.10;99.90
2447;DHT22;26430;48.818;9.244;2022-09-01T06:09:09;16.10;99.90
2447;DHT22;26430;48.818;9.244;2022-09-01T06:11:35;16.10;99.90
2447;DHT22;26430;48.818;9.244;2022-09-01T06:14:01;16.20;99.90
2447;DHT22;26430;48.818;9.244;2022-09-01T06:16:28;16.20;99.90
2447;DHT22;26430;48.818;9.244;2022-09-01T06:18:56;16.20;99.90
2447;DHT22;26430;48.818;9.244;2022-09-01T06:21:24;16.30;99.90
2447;DHT22;26430;48.818;9.244;2022-09-01T06:23:51;16.30;99.90
2447;DHT22;26430;48.818;9.244;2022-09-01T06:26:23;16.50;99.90
2447;DHT22;26430;48.818;9.244;2022-09-01T06:28:56;16.60;99.90
2447;DHT22;26430;48.818;9.244;2022-09-01T06:31:25;16.50;99.90
2447;DHT22;26430;48.818;9.244;2022-09-01T06:33:53;16.70;99.90
2447;DHT22;26430;48.818;9.244;2022-09-01T06:36:23;16.80;99.90
2447;DHT22;26430;48.818;9.244;2022-09-01T06:38:51;16.90;99.90
2447;DHT22;26430;48.818;9.244;2022-09-01T06:41:18;17.00;99.90
2447;DHT22;26430;48.818;9.244;2022-09-01T06:43:48;17.00;99.90
2447;DHT22;26430;48.818;9.244;2022-09-01T06:46:18;16.70;99.90
2447;DHT22;26430;48.818;9.244;2022-09-01T06:48:45;16.70;99.90
2447;DHT22;26430;48.818;9.244;2022-09-01T06:51:20;17.00;99.90
2447;DHT22;26430;48.818;9.244;2022-09-01T06:53:48;17.00;99.90
2447;DHT22;26430;48.818;9.244;2022-09-01T06:56:18;17.20;99.90
2447;DHT22;26430;48.818;9.244;2022-09-01T06:58:45;17.20;99.90
2447;DHT22;26430;48.818;9.244;2022-09-01T07:01:14;17.20;99.90
2447;DHT22;26430;48.818;9.244;2022-09-01T07:03:43;17.50;99.90
2447;DHT22;26430;48.818;9.244;2022-09-01T07:06:10;17.60;99.90
2447;DHT22;26430;48.818;9.244;2022-09-01T07:08:37;17.50;99.90
2447;DHT22;26430;48.818;9.244;2022-09-01T07:11:06;17.50;99.90
2447;DHT22;26430;48.818;9.244;2022-09-01T07:13:32;17.20;99.90
2447;DHT22;26430;48.818;9.244;2022-09-01T07:15:59;17.30;99.90
2447;DHT22;26430;48.818;9.244;2022-09-01T07:18:25;17.60;99.90
2447;DHT22;26430;48.818;9.244;2022-09-01T07:20:52;17.80;99.90
2447;DHT22;26430;48.818;9.244;2022-09-01T07:23:19;17.90;99.90
2447;DHT22;26430;48.818;9.244;2022-09-01T07:25:47;18.10;99.90
2447;DHT22;26430;48.818;9.244;2022-09-01T07:28:14;18.00;99.90
2447;DHT22;26430;48.818;9.244;2022-09-01T07:30:42;17.90;99.90
2447;DHT22;26430;48.818;9.244;2022-09-01T07:33:10;18.10;99.90
2447;DHT22;26430;48.818;9.244;2022-09-01T07:35:38;18.20;99.90
2447;DHT22;26430;48.818;9.244;2022-09-01T07:38:04;18.40;99.90
2447;DHT22;26430;48.818;9.244;2022-09-01T07:40:33;18.40;99.90
2447;DHT22;26430;48.818;9.244;2022-09-01T07:43:03;18.40;99.90
2447;DHT22;26430;48.818;9.244;2022-09-01T07:45:30;18.40;99.90
2447;DHT22;26430;48.818;9.244;2022-09-01T07:47:57;18.40;99.90
2447;DHT22;26430;48.818;9.244;2022-09-01T07:50:25;18.50;99.90
2447;DHT22;26430;48.818;9.244;2022-09-01T07:52:54;18.50;99.90
2447;DHT22;26430;48.818;9.244;2022-09-01T07:55:20;18.50;99.90
2447;DHT22;26430;48.818;9.244;2022-09-01T07:57:45;18.60;99.90
2447;DHT22;26430;48.818;9.244;2022-09-01T08:00:15;18.70;99.90
2447;DHT22;26430;48.818;9.244;2022-09-01T08:02:42;18.60;99.90
2447;DHT22;26430;48.818;9.244;2022-09-01T08:05:16;18.40;99.90
2447;DHT22;26430;48.818;9.244;2022-09-01T08:07:43;18.50;99.90
2447;DHT22;26430;48.818;9.244;2022-09-01T08:10:11;18.60;99.90
2447;DHT22;26430;48.818;9.244;2022-09-01T08:12:37;18.60;99.90
2447;DHT22;26430;48.818;9.244;2022-09-01T08:15:05;18.80;99.90
2447;DHT22;26430;48.818;9.244;2022-09-01T08:17:32;18.80;99.90
2447;DHT22;26430;48.818;9.244;2022-09-01T08:19:57;19.00;99.90
2447;DHT22;26430;48.818;9.244;2022-09-01T08:22:23;19.00;99.90
2447;DHT22;26430;48.818;9.244;2022-09-01T08:24:51;19.10;99.90
2447;DHT22;26430;48.818;9.244;2022-09-01T08:27:17;19.20;99.90
2447;DHT22;26430;48.818;9.244;2022-09-01T08:29:43;19.20;99.90
2447;DHT22;26430;48.818;9.244;2022-09-01T08:32:10;19.30;99.90
2447;DHT22;26430;48.818;9.244;2022-09-01T08:34:36;19.30;99.90
2447;DHT22;26430;48.818;9.244;2022-09-01T08:37:04;19.30;99.90
2447;DHT22;26430;48.818;9.244;2022-09-01T08:39:29;19.30;99.90
2447;DHT22;26430;48.818;9.244;2022-09-01T08:42:11;19.30;99.90
2447;DHT22;26430;48.818;9.244;2022-09-01T08:45:03;19.30;99.90
2447;DHT22;26430;48.818;9.244;2022-09-01T08:47:32;19.50;99.90
2447;DHT22;26430;48.818;9.244;2022-09-01T08:49:58;19.50;99.90
2447;DHT22;26430;48.818;9.244;2022-09-01T08:52:46;19.80;99.90
2447;DHT22;26430;48.818;9.244;2022-09-01T08:55:27;19.70;99.90
2447;DHT22;26430;48.818;9.244;2022-09-01T08:57:56;19.60;99.90
2447;DHT22;26430;48.818;9.244;2022-09-01T09:00:31;19.70;99.90
2447;DHT22;26430;48.818;9.244;2022-09-01T09:08:32;20.10;99.90
2447;DHT22;26430;48.818;9.244;2022-09-01T09:11:15;20.20;99.90
2447;DHT22;26430;48.818;9.244;2022-09-01T09:16:47;20.00;99.90
2447;DHT22;26430;48.818;9.244;2022-09-01T09:19:28;20.00;99.90
2447;DHT22;26430;48.818;9.244;2022-09-01T09:21:57;19.90;99.90
2447;DHT22;26430;48.818;9.244;2022-09-01T09:27:25;20.10;99.90
2447;DHT22;26430;48.818;9.244;2022-09-01T09:29:56;20.20;99.90
2447;DHT22;26430;48.818;9.244;2022-09-01T09:32:59;20.20;99.90
2447;DHT22;26430;48.818;9.244;2022-09-01T09:35:51;20.10;99.90
2447;DHT22;26430;48.818;9.244;2022-09-01T09:38:23;20.10;99.90
2447;DHT22;26430;48.818;9.244;2022-09-01T09:43:28;20.10;99.90
2447;DHT22;26430;48.818;9.244;2022-09-01T09:49:09;20.40;99.90
2447;DHT22;26430;48.818;9.244;2022-09-01T09:51:37;20.40;99.90
2447;DHT22;26430;48.818;9.244;2022-09-01T09:56:41;20.40;99.90
2447;DHT22;26430;48.818;9.244;2022-09-01T09:59:30;20.30;99.90
2447;DHT22;26430;48.818;9.244;2022-09-01T10:02:11;20.20;99.90
2447;DHT22;26430;48.818;9.244;2022-09-01T10:04:39;20.00;99.90
2447;DHT22;26430;48.818;9.244;2022-09-01T10:07:41;20.00;99.90
2447;DHT22;26430;48.818;9.244;2022-09-01T10:10:36;20.10;99.90
2447;DHT22;26430;48.818;9.244;2022-09-01T10:13:04;21.20;99.90
2447;DHT22;26430;48.818;9.244;2022-09-01T10:15:32;21.90;99.90
2447;DHT22;26430;48.818;9.244;2022-09-01T10:18:10;22.40;99.90
2447;DHT22;26430;48.818;9.244;2022-09-01T10:20:48;23.60;99.90
2447;DHT22;26430;48.818;9.244;2022-09-01T10:23:18;23.60;99.90
2447;DHT22;26430;48.818;9.244;2022-09-01T10:25:44;23.40;99.90
2447;DHT22;26430;48.818;9.244;2022-09-01T10:28:15;23.30;99.90
2447;DHT22;26430;48.818;9.244;2022-09-01T10:30:43;22.90;99.90
2447;DHT22;26430;48.818;9.244;2022-09-01T10:33:11;22.80;99.90
2447;DHT22;26430;48.818;9.244;2022-09-01T10:35:42;22.50;99.90
2447;DHT22;26430;48.818;9.244;2022-09-01T10:40:48;22.50;99.90
2447;DHT22;26430;48.818;9.244;2022-09-01T10:43:37;22.20;99.90
2447;DHT22;26430;48.818;9.244;2022-09-01T10:48:45;21.90;99.90
2447;DHT22;26430;48.818;9.244;2022-09-01T10:59:10;22.10;99.90
2447;DHT22;26430;48.818;9.244;2022-09-01T11:07:32;22.00;99.90
2447;DHT22;26430;48.818;9.244;2022-09-01T11:12:46;21.80;99.90
2447;DHT22;26430;48.818;9.244;2022-09-01T11:17:55;21.60;99.90
2447;DHT22;26430;48.818;9.244;2022-09-01T11:23:03;21.60;99.90
2447;DHT22;26430;48.818;9.244;2022-09-01T11:26:00;21.80;99.90
2447;DHT22;26430;48.818;9.244;2022-09-01T11:36:26;23.00;99.90
2447;DHT22;26430;48.818;9.244;2022-09-01T11:42:10;23.00;99.90
2447;DHT22;26430;48.818;9.244;2022-09-01T11:44:26;23.10;99.90
2447;DHT22;26430;48.818;9.244;2022-09-01T11:47:16;23.50;99.90
2447;DHT22;26430;48.818;9.244;2022-09-01T11:49:58;23.70;99.90
2447;DHT22;26430;48.818;9.244;2022-09-01T11:52:27;24.10;99.90
2447;DHT22;26430;48.818;9.244;2022-09-01T11:54:55;24.40;99.90
2447;DHT22;26430;48.818;9.244;2022-09-01T11:57:30;24.70;99.90
2447;DHT22;26430;48.818;9.244;2022-09-01T11:59:59;24.20;99.90
2447;DHT22;26430;48.818;9.244;2022-09-01T12:02:28;24.50;99.90
2447;DHT22;26430;48.818;9.244;2022-09-01T12:04:56;24.60;99.90
2447;DHT22;26430;48.818;9.244;2022-09-01T12:07:37;24.60;99.90
2447;DHT22;26430;48.818;9.244;2022-09-01T12:10:26;24.70;99.90
2447;DHT22;26430;48.818;9.244;2022-09-01T12:15:29;24.60;99.90
2447;DHT22;26430;48.818;9.244;2022-09-01T12:18:09;24.60;99.90
2447;DHT22;26430;48.818;9.244;2022-09-01T12:20:37;24.70;99.90
2447;DHT22;26430;48.818;9.244;2022-09-01T12:23:25;24.70;99.90
2447;DHT22;26430;48.818;9.244;2022-09-01T12:25:56;24.50;99.90
2447;DHT22;26430;48.818;9.244;2022-09-01T12:28:26;24.70;99.90
2447;DHT22;26430;48.818;9.244;2022-09-01T12:30:56;24.60;99.90
2447;DHT22;26430;48.818;9.244;2022-09-01T12:33:26;24.80;99.90
2447;DHT22;26430;48.818;9.244;2022-09-01T12:36:13;24.60;99.90
2447;DHT22;26430;48.818;9.244;2022-09-01T12:38:38;24.70;99.90
2447;DHT22;26430;48.818;9.244;2022-09-01T12:41:39;24.90;99.90
2447;DHT22;26430;48.818;9.244;2022-09-01T12:46:54;25.00;99.90
2447;DHT22;26430;48.818;9.244;2022-09-01T12:49:33;25.20;99.90
2447;DHT22;26430;48.818;9.244;2022-09-01T12:54:48;25.40;99.90
2447;DHT22;26430;48.818;9.244;2022-09-01T12:57:35;25.30;99.90
2447;DHT22;26430;48.818;9.244;2022-09-01T13:02:43;25.40;99.90
2447;DHT22;26430;48.818;9.244;2022-09-01T13:08:17;25.30;99.90
2447;DHT22;26430;48.818;9.244;2022-09-01T13:10:52;25.30;99.90
2447;DHT22;26430;48.818;9.244;2022-09-01T13:13:19;24.90;99.90
2447;DHT22;26430;48.818;9.244;2022-09-01T13:15:50;24.90;99.90
2447;DHT22;26430;48.818;9.244;2022-09-01T13:18:19;25.30;99.90
2447;DHT22;26430;48.818;9.244;2022-09-01T13:20:46;25.30;99.90
2447;DHT22;26430;48.818;9.244;2022-09-01T13:23:11;25.40;99.90
2447;DHT22;26430;48.818;9.244;2022-09-01T13:25:38;25.30;99.90
2447;DHT22;26430;48.818;9.244;2022-09-01T13:28:05;25.00;99.90
2447;DHT22;26430;48.818;9.244;2022-09-01T13:30:33;25.10;99.90
2447;DHT22;26430;48.818;9.244;2022-09-01T13:32:59;25.20;99.90
2447;DHT22;26430;48.818;9.244;2022-09-01T13:35:25;25.40;99.90
2447;DHT22;26430;48.818;9.244;2022-09-01T13:37:51;25.40;99.90
2447;DHT22;26430;48.818;9.244;2022-09-01T13:40:18;25.00;99.90
2447;DHT22;26430;48.818;9.244;2022-09-01T13:42:49;24.90;99.90
2447;DHT22;26430;48.818;9.244;2022-09-01T13:45:16;24.90;99.90
2447;DHT22;26430;48.818;9.244;2022-09-01T13:47:45;24.70;99.90
2447;DHT22;26430;48.818;9.244;2022-09-01T13:50:13;24.70;99.90
2447;DHT22;26430;48.818;9.244;2022-09-01T13:52:41;24.80;99.90
2447;DHT22;26430;48.818;9.244;2022-09-01T13:55:10;24.90;99.90
2447;DHT22;26430;48.818;9.244;2022-09-01T13:57:37;24.60;99.90
2447;DHT22;26430;48.818;9.244;2022-09-01T14:00:08;24.70;99.90
2447;DHT22;26430;48.818;9.244;2022-09-01T14:02:35;24.90;99.90
2447;DHT22;26430;48.818;9.244;2022-09-01T14:05:01;24.90;99.90
2447;DHT22;26430;48.818;9.244;2022-09-01T14:07:27;24.80;99.90
2447;DHT22;26430;48.818;9.244;2022-09-01T14:09:54;24.80;99.90
2447;DHT22;26430;48.818;9.244;2022-09-01T14:12:20;24.70;99.90
2447;DHT22;26430;48.818;9.244;2022-09-01T14:14:46;24.50;99.90
2447;DHT22;26430;48.818;9.244;2022-09-01T14:17:12;24.60;99.90
2447;DHT22;26430;48.818;9.244;2022-09-01T14:19:37;24.80;99.90
2447;DHT22;26430;48.818;9.244;2022-09-01T14:22:03;24.80;99.90
2447;DHT22;26430;48.818;9.244;2022-09-01T14:24:32;24.40;99.90
2447;DHT22;26430;48.818;9.244;2022-09-01T14:27:01;24.30;99.90
2447;DHT22;26430;48.818;9.244;2022-09-01T14:29:27;24.40;99.90
2447;DHT22;26430;48.818;9.244;2022-09-01T14:31:52;24.30;99.90
2447;DHT22;26430;48.818;9.244;2022-09-01T14:34:20;24.50;99.90
2447;DHT22;26430;48.818;9.244;2022-09-01T14:36:45;24.60;99.90
2447;DHT22;26430;48.818;9.244;2022-09-01T14:39:11;24.70;99.90
2447;DHT22;26430;48.818;9.244;2022-09-01T14:41:37;24.70;99.90
2447;DHT22;26430;48.818;9.244;2022-09-01T14:44:03;24.60;99.90
2447;DHT22;26430;48.818;9.244;2022-09-01T14:46:29;24.30;99.90
2447;DHT22;26430;48.818;9.244;2022-09-01T14:48:56;24.50;99.90
2447;DHT22;26430;48.818;9.244;2022-09-01T14:51:26;24.80;99.90
2447;DHT22;26430;48.818;9.244;2022-09-01T14:53:54;24.90;99.90
2447;DHT22;26430;48.818;9.244;2022-09-01T14:56:21;24.90;99.90
2447;DHT22;26430;48.818;9.244;2022-09-01T14:58:48;24.90;99.90
2447;DHT22;26430;48.818;9.244;2022-09-01T15:01:17;24.70;99.90
2447;DHT22;26430;48.818;9.244;2022-09-01T15:03:43;24.60;99.90
2447;DHT22;26430;48.818;9.244;2022-09-01T15:06:12;24.70;99.90
2447;DHT22;26430;48.818;9.244;2022-09-01T15:08:39;24.70;99.90
2447;DHT22;26430;48.818;9.244;2022-09-01T15:11:13;24.60;99.90
2447;DHT22;26430;48.818;9.244;2022-09-01T15:13:40;24.50;99.90
2447;DHT22;26430;48.818;9.244;2022-09-01T15:16:13;24.20;99.90
2447;DHT22;26430;48.818;9.244;2022-09-01T15:18:40;24.40;99.90
2447;DHT22;26430;48.818;9.244;2022-09-01T15:21:06;24.70;99.90
2447;DHT22;26430;48.818;9.244;2022-09-01T15:23:31;24.60;99.90
2447;DHT22;26430;48.818;9.244;2022-09-01T15:25:57;24.60;99.90
2447;DHT22;26430;48.818;9.244;2022-09-01T15:28:24;24.60;99.90
2447;DHT22;26430;48.818;9.244;2022-09-01T15:30:51;24.60;99.90
2447;DHT22;26430;48.818;9.244;2022-09-01T15:33:18;24.40;99.90
2447;DHT22;26430;48.818;9.244;2022-09-01T15:35:45;24.10;99.90
2447;DHT22;26430;48.818;9.244;2022-09-01T15:38:12;23.80;99.20
2447;DHT22;26430;48.818;9.244;2022-09-01T15:40:39;23.90;99.90
2447;DHT22;26430;48.818;9.244;2022-09-01T15:43:06;23.90;99.70
2447;DHT22;26430;48.818;9.244;2022-09-01T15:45:31;23.70;99.90
2447;DHT22;26430;48.818;9.244;2022-09-01T15:47:57;23.70;99.90
2447;DHT22;26430;48.818;9.244;2022-09-01T15:50:25;23.60;99.90
2447;DHT22;26430;48.818;9.244;2022-09-01T15:52:54;23.40;99.90
2447;DHT22;26430;48.818;9.244;2022-09-01T15:55:25;23.30;99.90
2447;DHT22;26430;48.818;9.244;2022-09-01T15:57:51;23.20;99.90
2447;DHT22;26430;48.818;9.244;2022-09-01T16:00:20;23.10;99.90
2447;DHT22;26430;48.818;9.244;2022-09-01T16:02:46;22.90;99.90
2447;DHT22;26430;48.818;9.244;2022-09-01T16:05:12;23.00;99.90
2447;DHT22;26430;48.818;9.244;2022-09-01T16:07:39;23.20;99.90
2447;DHT22;26430;48.818;9.244;2022-09-01T16:10:06;23.30;99.90
2447;DHT22;26430;48.818;9.244;2022-09-01T16:12:36;23.40;99.90
2447;DHT22;26430;48.818;9.244;2022-09-01T16:15:02;23.50;99.90
2447;DHT22;26430;48.818;9.244;2022-09-01T16:20:06;23.60;99.90
2447;DHT22;26430;48.818;9.244;2022-09-01T16:22:37;23.60;99.90
2447;DHT22;26430;48.818;9.244;2022-09-01T16:25:16;23.60;99.90
2447;DHT22;26430;48.818;9.244;2022-09-01T16:27:43;23.60;99.90
2447;DHT22;26430;48.818;9.244;2022-09-01T16:30:13;23.70;99.90
2447;DHT22;26430;48.818;9.244;2022-09-01T16:32:44;23.70;99.90
2447;DHT22;26430;48.818;9.244;2022-09-01T16:35:10;23.80;99.70
2447;DHT22;26430;48.818;9.244;2022-09-01T16:38:09;23.80;99.60
2447;DHT22;26430;48.818;9.244;2022-09-01T16:41:05;23.50;99.50
2447;DHT22;26430;48.818;9.244;2022-09-01T16:43:39;23.40;99.90
2447;DHT22;26430;48.818;9.244;2022-09-01T16:46:45;23.60;99.90
2447;DHT22;26430;48.818;9.244;2022-09-01T16:49:55;23.50;99.90
2447;DHT22;26430;48.818;9.244;2022-09-01T16:52:34;23.30;99.90
2447;DHT22;26430;48.818;9.244;2022-09-01T16:55:33;23.40;99.90
2447;DHT22;26430;48.818;9.244;2022-09-01T17:04:09;23.20;99.90
2447;DHT22;26430;48.818;9.244;2022-09-01T17:07:10;23.20;99.90
2447;DHT22;26430;48.818;9.244;2022-09-01T17:09:48;23.00;99.90
2447;DHT22;26430;48.818;9.244;2022-09-01T17:12:21;22.90;99.90
2447;DHT22;26430;48.818;9.244;2022-09-01T17:15:06;22.90;99.90
2447;DHT22;26430;48.818;9.244;2022-09-01T17:20:41;22.60;99.90
2447;DHT22;26430;48.818;9.244;2022-09-01T17:23:11;22.60;99.90
2447;DHT22;26430;48.818;9.244;2022-09-01T17:25:48;22.50;99.90
2447;DHT22;26430;48.818;9.244;2022-09-01T17:28:26;22.40;99.90
2447;DHT22;26430;48.818;9.244;2022-09-01T17:31:13;22.30;99.90
2447;DHT22;26430;48.818;9.244;2022-09-01T17:39:14;22.20;99.90